Fairdale, Kentucky
Current Conditions -  °F | °C
As of 5:56 PM on Tuesday 27 Jan 2015 (Local Time) from KSDF Reporting Station
Broken Clouds Broken Clouds  
Wind Chill: 26°   Ceiling: 3200
Heat Index: 34°   Visibility: 9mi
Dew Point: 21°   Wind: 10mph
Humidity: 59%   Direction: 340°NNW
Pressure: 30.17"   Gusts: NA
Location:  38.1°N, 85.76°W
Report Text: KSDF 272256Z 34009KT 9SM BKN032 BKN050 01/M06 A3017 RMK AO2 SLP219 SKY CLRG DSNT E HRZN T00111061
Loading
Personal Weather Stations






























Interactive Weather Map New forecast layout! Learn more

10-Day Weather Forecast

Advertisements
Track Severe Weather on mobile